Time;durP1;ratioP1;P1;durP2;ratioP2;P2;SDS_P1;SDS_P2;PMS_P1;PMS_P2;Temp;Humidity;BMP_temperature;BMP_pressure;BME280_temperature;BME280_humidity;BME280_pressure;Samples;Min_cycle;Max_cycle;Signal;HPM_P1;HPM_P2
2023/01/01 00:01:07;;;;;;;221.00;121.45;;;;;;;4.87;nan;96485.59;5090735;28;20205;-58
2023/01/01 00:03:34;;;;;;;200.73;109.57;;;;;;;4.93;nan;96475.59;5090636;28;20236;-59
2023/01/01 00:06:05;;;;;;;184.10;104.50;;;;;;;4.95;nan;96478.97;5090376;28;20202;-57
2023/01/01 00:08:32;;;;;;;171.27;92.13;;;;;;;4.92;nan;96483.97;5090257;28;20205;-59
2023/01/01 00:11:02;;;;;;;172.80;94.32;;;;;;;4.88;nan;96484.75;5090297;28;20706;-57
2023/01/01 00:13:29;;;;;;;216.45;118.13;;;;;;;4.86;nan;96486.41;5090301;28;20202;-58
2023/01/01 00:15:55;;;;;;;237.52;130.38;;;;;;;4.80;nan;96489.69;5090403;28;20233;-58
2023/01/01 00:18:22;;;;;;;461.48;288.77;;;;;;;4.73;nan;96485.41;5090768;28;20202;-59
2023/01/01 00:20:49;;;;;;;226.80;126.22;;;;;;;4.71;nan;96482.88;5090172;28;20201;-60
2023/01/01 00:23:16;;;;;;;220.68;121.45;;;;;;;4.73;nan;96488.78;5090423;28;20198;-58
2023/01/01 00:25:43;;;;;;;321.05;160.25;;;;;;;4.73;nan;96488.78;5090293;28;20194;-58
2023/01/01 00:28:11;;;;;;;399.10;216.00;;;;;;;4.64;nan;96492.88;5090469;28;20284;-59
2023/01/01 00:30:40;;;;;;;247.88;138.77;;;;;;;4.50;nan;96496.88;5090017;28;20201;-58
2023/01/01 00:33:07;;;;;;;265.40;148.52;;;;;;;4.45;nan;96506.91;5089620;28;20232;-57
2023/01/01 00:35:34;;;;;;;221.27;116.18;;;;;;;4.56;nan;96512.06;5090120;28;20775;-58
2023/01/01 00:38:01;;;;;;;208.20;110.28;;;;;;;4.55;nan;96496.13;5090266;28;20237;-58
2023/01/01 00:40:28;;;;;;;200.05;113.32;;;;;;;4.61;nan;96498.72;5090022;28;20194;-58
2023/01/01 00:42:54;;;;;;;195.25;114.55;;;;;;;4.47;nan;96502.72;5090408;28;20209;-58
2023/01/01 00:45:23;;;;;;;193.23;110.88;;;;;;;4.28;nan;96503.28;5090010;28;20198;-59
2023/01/01 00:47:50;;;;;;;192.98;104.00;;;;;;;4.32;nan;96508.41;5090418;28;20206;-58
2023/01/01 00:50:17;;;;;;;163.20;85.93;;;;;;;4.27;nan;96514.19;5089802;28;20194;-59
2023/01/01 00:52:44;;;;;;;182.20;100.25;;;;;;;4.34;nan;96515.97;5090228;28;20251;-60
2023/01/01 00:55:11;;;;;;;195.85;100.80;;;;;;;4.26;nan;96504.94;5091071;28;20229;-59
2023/01/01 00:57:38;;;;;;;182.15;96.28;;;;;;;4.36;nan;96506.78;5093532;28;20198;-58
2023/01/01 01:00:06;;;;;;;186.18;100.60;;;;;;;4.36;nan;96514.31;5093638;28;20201;-58
2023/01/01 01:02:34;;;;;;;214.70;116.20;;;;;;;4.36;nan;96511.81;5093543;28;20234;-58
2023/01/01 01:05:02;;;;;;;193.77;105.38;;;;;;;4.35;nan;96497.53;5093720;28;20642;-58
2023/01/01 01:07:33;;;;;;;178.70;101.28;;;;;;;4.31;nan;96508.38;5093413;28;20194;-59
2023/01/01 01:10:00;;;;;;;183.18;97.82;;;;;;;4.14;nan;96497.25;5093527;28;20198;-58
2023/01/01 01:12:27;;;;;;;171.05;93.57;;;;;;;4.16;nan;96483.00;5093208;28;20671;-59
2023/01/01 01:14:53;;;;;;;182.30;97.05;;;;;;;4.23;nan;96507.41;5093578;28;20194;-59
2023/01/01 01:17:20;;;;;;;170.13;93.10;;;;;;;4.30;nan;96502.50;5092808;28;20292;-60
2023/01/01 01:19:48;;;;;;;1471.13;947.15;;;;;;;4.06;nan;96497.97;5092655;28;20711;-60
2023/01/01 01:22:15;;;;;;;722.08;568.13;;;;;;;3.98;nan;96499.50;5092796;28;20233;-60
2023/01/01 01:24:41;;;;;;;730.55;569.65;;;;;;;4.13;nan;96491.38;5093079;28;20270;-59
2023/01/01 01:27:08;;;;;;;367.95;225.90;;;;;;;4.00;nan;96485.28;5093154;28;20334;-57
2023/01/01 01:29:35;;;;;;;291.60;162.95;;;;;;;3.94;nan;96487.75;5093283;28;20197;-59
2023/01/01 01:32:01;;;;;;;264.08;143.68;;;;;;;4.02;nan;96491.19;5092683;28;20266;-59
2023/01/01 01:34:28;;;;;;;228.68;127.40;;;;;;;4.13;nan;96493.03;5093268;28;20221;-59
2023/01/01 01:36:56;;;;;;;195.60;102.97;;;;;;;4.10;nan;96494.69;5092453;28;20749;-59
2023/01/01 01:39:23;;;;;;;166.10;94.60;;;;;;;4.01;nan;96489.50;5092563;28;20209;-59
2023/01/01 01:41:50;;;;;;;174.25;91.72;;;;;;;3.93;nan;96493.59;5092980;28;20196;-59
2023/01/01 01:45:04;;;;;;;150.75;78.53;;;;;;;4.07;nan;96497.16;5092567;28;20740;-58
2023/01/01 01:47:35;;;;;;;140.80;72.20;;;;;;;4.00;nan;96484.44;5029946;28;20254;-58
2023/01/01 01:50:08;;;;;;;147.90;70.15;;;;;;;4.17;nan;96488.06;5079648;28;20632;-58
2023/01/01 01:52:40;;;;;;;139.98;73.80;;;;;;;4.20;nan;96490.63;5092246;28;20250;-58
2023/01/01 01:55:09;;;;;;;140.80;73.60;;;;;;;4.16;nan;96486.38;5092664;28;20198;-59
2023/01/01 01:57:38;;;;;;;145.57;78.47;;;;;;;4.18;nan;96498.97;5092293;28;20198;-58
2023/01/01 02:00:06;;;;;;;152.45;78.85;;;;;;;4.10;nan;96497.19;5092282;28;20202;-58
2023/01/01 02:02:37;;;;;;;154.30;76.20;;;;;;;4.14;nan;96500.59;5092312;28;20589;-59
2023/01/01 02:05:05;;;;;;;142.43;77.05;;;;;;;4.03;nan;96492.88;5092527;28;20251;-58
2023/01/01 02:07:34;;;;;;;143.07;75.15;;;;;;;4.09;nan;96500.53;5091719;28;20193;-58
2023/01/01 02:10:03;;;;;;;146.70;74.07;;;;;;;4.17;nan;96500.66;5091960;28;20201;-58
2023/01/01 02:12:30;;;;;;;142.50;75.13;;;;;;;4.08;nan;96493.81;5091808;28;20213;-58
2023/01/01 02:14:57;;;;;;;145.27;78.47;;;;;;;4.03;nan;96512.16;5092084;28;20637;-59
2023/01/01 02:17:31;;;;;;;146.38;76.75;;;;;;;4.02;nan;96506.28;5092136;28;20222;-58
2023/01/01 02:20:12;;;;;;;134.02;72.45;;;;;;;4.04;nan;96499.63;5092059;28;20248;-58
2023/01/01 02:23:02;;;;;;;139.48;70.85;;;;;;;3.89;nan;96501.91;5091495;28;20234;-58
2023/01/01 02:25:43;;;;;;;135.32;69.05;;;;;;;3.86;nan;96496.84;5091752;28;20700;-59
2023/01/01 02:28:19;;;;;;;129.85;64.05;;;;;;;3.76;nan;96502.53;5091714;28;20201;-58
2023/01/01 02:30:48;;;;;;;119.50;62.42;;;;;;;3.85;nan;96506.88;5091950;28;20197;-58
2023/01/01 02:33:20;;;;;;;121.20;62.33;;;;;;;3.87;nan;96505.22;5091478;28;20736;-58
2023/01/01 02:35:51;;;;;;;133.88;65.93;;;;;;;3.82;nan;96505.16;5091754;28;20229;-58
2023/01/01 02:38:23;;;;;;;123.65;64.45;;;;;;;3.77;nan;96514.28;5091617;28;20540;-59
2023/01/01 02:40:55;;;;;;;127.00;62.53;;;;;;;3.76;nan;96505.88;5091523;28;20606;-58
2023/01/01 02:43:21;;;;;;;118.07;61.67;;;;;;;3.83;nan;96503.47;5091279;28;20259;-58
2023/01/01 02:45:50;;;;;;;134.63;64.07;;;;;;;3.86;nan;96501.00;5091946;28;20190;-58
2023/01/01 02:48:39;;;;;;;120.57;59.08;;;;;;;3.85;nan;96500.16;5091195;28;20255;-58
2023/01/01 02:51:15;;;;;;;133.02;70.07;;;;;;;3.85;nan;96497.66;5091747;28;20284;-59
2023/01/01 02:53:49;;;;;;;132.40;66.47;;;;;;;3.94;nan;96500.31;5091365;28;20201;-59
2023/01/01 02:56:27;;;;;;;145.77;69.53;;;;;;;3.88;nan;96480.09;5091146;28;20225;-59
2023/01/01 03:01:56;;;;;;;129.23;68.03;;;;;;;3.98;nan;96488.59;5091314;28;20694;-59
2023/01/01 03:04:29;;;;;;;120.18;61.05;;;;;;;3.90;nan;96490.19;5091269;28;20205;-60
2023/01/01 03:07:10;;;;;;;119.38;62.72;;;;;;;3.80;nan;96486.66;5091565;28;20194;-58
2023/01/01 03:09:44;;;;;;;118.68;63.20;;;;;;;3.87;nan;96490.13;5090717;28;20208;-59
2023/01/01 03:12:20;;;;;;;107.20;60.83;;;;;;;3.91;nan;96482.66;5091071;28;20622;-58
2023/01/01 03:14:55;;;;;;;128.18;66.63;;;;;;;3.95;nan;96483.56;5090794;28;20259;-58
2023/01/01 03:17:28;;;;;;;132.60;68.10;;;;;;;4.01;nan;96491.16;5090421;28;20706;-58
2023/01/01 03:19:58;;;;;;;120.25;64.00;;;;;;;3.97;nan;96507.03;5090835;28;20210;-58
2023/01/01 03:22:31;;;;;;;129.10;64.97;;;;;;;4.05;nan;96513.03;5090892;28;20240;-58
2023/01/01 03:25:01;;;;;;;145.48;74.20;;;;;;;4.06;nan;96497.97;5090589;28;20194;-58
2023/01/01 03:27:33;;;;;;;146.38;78.65;;;;;;;4.09;nan;96503.03;5090950;28;20204;-57
2023/01/01 03:30:02;;;;;;;164.25;87.93;;;;;;;4.00;nan;96492.84;5090516;28;20208;-58
2023/01/01 03:35:19;;;;;;;162.77;83.15;;;;;;;3.80;nan;96484.16;5090462;28;20248;-58
2023/01/01 03:37:48;;;;;;;168.35;85.75;;;;;;;3.92;nan;96499.44;5090634;28;20228;-57
2023/01/01 03:40:18;;;;;;;185.27;98.22;;;;;;;3.83;nan;96493.41;5090201;28;20193;-58
2023/01/01 03:42:51;;;;;;;144.30;81.82;;;;;;;3.86;nan;96493.47;5091006;28;20208;-58
2023/01/01 03:45:21;;;;;;;149.43;80.13;;;;;;;3.81;nan;96490.88;5090785;28;20252;-58
2023/01/01 03:47:50;;;;;;;151.63;78.78;;;;;;;3.61;nan;96493.09;5090683;28;20197;-58
2023/01/01 03:50:17;;;;;;;151.27;77.57;;;;;;;3.60;nan;96495.56;5090602;28;20193;-59
2023/01/01 03:52:55;;;;;;;145.57;75.63;;;;;;;3.65;nan;96494.00;5090633;28;20280;-57
2023/01/01 03:55:30;;;;;;;152.00;82.80;;;;;;;3.71;nan;96494.91;5090650;28;20658;-58
2023/01/01 03:58:02;;;;;;;155.98;82.47;;;;;;;3.72;nan;96505.81;5090546;28;20246;-59
2023/01/01 04:00:33;;;;;;;161.68;83.93;;;;;;;3.65;nan;96504.03;5090234;28;20619;-60
2023/01/01 04:03:05;;;;;;;155.52;80.50;;;;;;;3.64;nan;96504.88;5090957;28;20197;-58
2023/01/01 04:05:35;;;;;;;171.02;88.07;;;;;;;3.67;nan;96503.25;5090923;28;20189;-60
2023/01/01 04:08:03;;;;;;;158.00;85.07;;;;;;;3.63;nan;96508.19;5091036;28;20239;-59
2023/01/01 04:10:32;;;;;;;157.35;83.75;;;;;;;3.74;nan;96504.16;5090654;28;20186;-59
2023/01/01 04:13:02;;;;;;;143.20;75.22;;;;;;;3.72;nan;96514.19;5091021;28;20194;-58
2023/01/01 04:15:28;;;;;;;167.50;83.55;;;;;;;3.57;nan;96510.59;5090596;28;20194;-59
2023/01/01 04:17:55;;;;;;;158.68;78.35;;;;;;;3.56;nan;96508.91;5090245;28;21432;-59
2023/01/01 04:20:24;;;;;;;140.90;78.25;;;;;;;3.60;nan;96513.16;5090321;28;20197;-58
2023/01/01 04:22:51;;;;;;;154.98;79.32;;;;;;;3.61;nan;96509.84;5090137;28;20679;-59
2023/01/01 04:25:18;;;;;;;148.38;80.60;;;;;;;3.57;nan;96510.59;5090743;28;20568;-59
2023/01/01 04:27:45;;;;;;;162.50;80.70;;;;;;;3.48;nan;96506.25;5090512;28;20193;-59
2023/01/01 04:30:14;;;;;;;163.25;80.82;;;;;;;3.48;nan;96501.22;5092593;28;20201;-58
2023/01/01 04:32:41;;;;;;;154.15;77.65;;;;;;;3.46;nan;96507.09;5094169;28;20193;-58
2023/01/01 04:35:10;;;;;;;162.30;81.53;;;;;;;3.54;nan;96500.50;5094057;28;20214;-58
2023/01/01 04:37:39;;;;;;;166.15;84.07;;;;;;;3.55;nan;96502.19;5094241;28;20225;-59
2023/01/01 04:40:07;;;;;;;164.65;81.47;;;;;;;3.64;nan;96513.25;5093404;28;20671;-58
2023/01/01 04:42:34;;;;;;;157.73;86.82;;;;;;;3.42;nan;96483.56;5094225;28;20201;-58
2023/01/01 04:45:01;;;;;;;154.73;83.20;;;;;;;3.52;nan;96507.16;5094110;28;20194;-58
2023/01/01 04:47:28;;;;;;;159.70;87.90;;;;;;;3.52;nan;96502.13;5093796;28;20197;-58
2023/01/01 04:49:55;;;;;;;168.50;85.72;;;;;;;3.67;nan;96508.28;5093540;28;20208;-59
2023/01/01 04:52:22;;;;;;;167.52;89.28;;;;;;;3.66;nan;96501.56;5093926;28;20205;-58
2023/01/01 04:54:50;;;;;;;164.52;84.15;;;;;;;3.60;nan;96505.63;5093881;28;20247;-59
2023/01/01 04:57:17;;;;;;;156.98;82.03;;;;;;;3.59;nan;96508.97;5093152;28;20226;-57
2023/01/01 04:59:43;;;;;;;171.18;86.47;;;;;;;3.52;nan;96509.69;5092825;28;20194;-58
2023/01/01 05:02:10;;;;;;;172.75;86.68;;;;;;;3.47;nan;96506.22;5093173;28;20206;-58
2023/01/01 05:04:37;;;;;;;155.23;83.57;;;;;;;3.42;nan;96514.56;5092797;28;20250;-59
2023/01/01 05:07:03;;;;;;;165.95;88.72;;;;;;;3.44;nan;96516.25;5092977;28;20217;-58
2023/01/01 05:09:30;;;;;;;160.57;82.97;;;;;;;3.38;nan;96519.50;5092448;28;20312;-58
2023/01/01 05:11:58;;;;;;;164.23;84.53;;;;;;;3.29;nan;96525.19;5093598;28;20262;-60
2023/01/01 05:14:25;;;;;;;157.00;84.38;;;;;;;3.24;nan;96518.41;5093129;28;20205;-57
2023/01/01 05:16:52;;;;;;;158.98;85.32;;;;;;;3.17;nan;96517.47;5092764;28;20218;-58
2023/01/01 05:19:19;;;;;;;167.70;85.23;;;;;;;3.29;nan;96520.19;5093068;28;20271;-58
2023/01/01 05:21:46;;;;;;;169.32;85.85;;;;;;;3.13;nan;96523.25;5092643;28;20241;-59
2023/01/01 05:24:12;;;;;;;165.97;81.63;;;;;;;3.12;nan;96528.25;5092780;28;20305;-59
2023/01/01 05:26:41;;;;;;;168.57;85.67;;;;;;;3.04;nan;96521.41;5092967;28;20194;-59
2023/01/01 05:29:10;;;;;;;158.07;83.00;;;;;;;3.02;nan;96520.53;5092628;28;20193;-59
2023/01/01 05:31:37;;;;;;;162.00;84.53;;;;;;;3.13;nan;96533.28;5092950;28;20202;-59
2023/01/01 05:34:04;;;;;;;158.03;87.97;;;;;;;3.19;nan;96530.06;5092272;28;20209;-59
2023/01/01 05:36:37;;;;;;;164.60;86.63;;;;;;;3.23;nan;96530.13;5092690;28;20204;-59
2023/01/01 05:39:04;;;;;;;166.17;86.67;;;;;;;3.30;nan;96531.94;5092899;28;20262;-59
2023/01/01 05:41:32;;;;;;;177.00;89.43;;;;;;;3.36;nan;96522.00;5092181;28;20258;-59
2023/01/01 05:44:02;;;;;;;168.97;87.40;;;;;;;3.52;nan;96523.09;5092776;28;20194;-58
2023/01/01 05:46:30;;;;;;;162.53;85.40;;;;;;;3.40;nan;96522.91;5092544;28;20598;-59
2023/01/01 05:48:57;;;;;;;167.35;82.75;;;;;;;3.34;nan;96536.19;5092612;28;20201;-59
2023/01/01 05:51:26;;;;;;;159.52;80.95;;;;;;;3.29;nan;96525.19;5092890;28;20201;-58
2023/01/01 05:53:53;;;;;;;145.90;78.07;;;;;;;3.35;nan;96532.00;5092951;28;20258;-59
2023/01/01 05:56:20;;;;;;;149.15;79.32;;;;;;;3.48;nan;96531.41;5092471;28;20259;-58
2023/01/01 05:58:47;;;;;;;156.23;81.22;;;;;;;3.42;nan;96527.13;5092607;28;20221;-60
2023/01/01 06:01:16;;;;;;;149.32;79.88;;;;;;;3.45;nan;96536.41;5092588;28;20626;-60
2023/01/01 06:03:44;;;;;;;148.25;75.75;;;;;;;3.54;nan;96529.00;5092581;28;20246;-59
2023/01/01 06:06:13;;;;;;;148.30;77.80;;;;;;;3.67;nan;96538.44;5092160;28;20196;-59
2023/01/01 06:08:40;;;;;;;144.10;79.15;;;;;;;3.70;nan;96538.50;5092518;28;20197;-59
2023/01/01 06:11:10;;;;;;;150.60;77.28;;;;;;;3.68;nan;96529.25;5092430;28;20209;-58
2023/01/01 06:13:37;;;;;;;145.73;75.13;;;;;;;3.78;nan;96545.31;5092089;28;20671;-59
2023/01/01 06:16:04;;;;;;;148.00;75.80;;;;;;;3.78;nan;96546.16;5092263;28;20262;-59
2023/01/01 06:18:33;;;;;;;142.05;75.43;;;;;;;3.71;nan;96537.66;5092348;28;20225;-59
2023/01/01 06:21:06;;;;;;;148.52;76.72;;;;;;;3.74;nan;96544.41;5091777;28;20229;-58
2023/01/01 06:23:33;;;;;;;141.40;73.43;;;;;;;3.88;nan;96552.19;5091977;28;20198;-58
2023/01/01 06:26:07;;;;;;;146.65;75.57;;;;;;;4.01;nan;96546.50;5091600;28;20209;-58
2023/01/01 06:28:34;;;;;;;140.10;76.50;;;;;;;4.07;nan;96544.94;5092178;28;20201;-59
2023/01/01 06:31:01;;;;;;;151.23;76.15;;;;;;;4.18;nan;96559.38;5091443;28;20266;-59
2023/01/01 06:33:28;;;;;;;125.63;68.70;;;;;;;4.28;nan;96551.97;5091697;28;20214;-59
2023/01/01 06:35:55;;;;;;;142.27;73.55;;;;;;;4.24;nan;96547.69;5092078;28;20225;-60
2023/01/01 06:38:24;;;;;;;148.48;73.45;;;;;;;4.33;nan;96557.06;5092004;28;20612;-59
2023/01/01 06:40:57;;;;;;;134.32;67.82;;;;;;;4.33;nan;96559.59;5091911;28;20194;-60
2023/01/01 06:43:24;;;;;;;126.07;66.13;;;;;;;4.35;nan;96565.47;5091648;28;20206;-60
2023/01/01 06:46:00;;;;;;;119.32;63.17;;;;;;;4.46;nan;96563.94;5091505;28;20696;-59
2023/01/01 06:48:28;;;;;;;139.88;66.90;;;;;;;4.65;nan;96565.91;5091380;28;20224;-59
2023/01/01 06:50:54;;;;;;;142.80;75.20;;;;;;;4.64;nan;96574.28;5091272;28;20201;-59
2023/01/01 06:53:25;;;;;;;146.32;75.90;;;;;;;4.73;nan;96579.44;5091402;28;20268;-59
2023/01/01 06:55:52;;;;;;;153.38;79.50;;;;;;;4.83;nan;96582.09;5091645;28;20293;-60
2023/01/01 06:58:19;;;;;;;166.98;80.43;;;;;;;4.88;nan;96583.00;5091447;28;20221;-59
2023/01/01 07:00:45;;;;;;;154.07;79.78;;;;;;;4.99;nan;96582.28;5091157;28;20206;-59
2023/01/01 07:03:12;;;;;;;158.27;76.32;;;;;;;5.15;nan;96578.28;5091643;28;20206;-59
2023/01/01 07:05:39;;;;;;;148.55;75.88;;;;;;;5.35;nan;96583.56;5091010;28;20558;-60
2023/01/01 07:08:06;;;;;;;147.23;75.75;;;;;;;5.52;nan;96578.69;5091556;28;20193;-59
2023/01/01 07:10:34;;;;;;;149.50;74.68;;;;;;;5.78;nan;96579.78;5091172;28;20209;-59
2023/01/01 07:13:00;;;;;;;133.35;68.85;;;;;;;5.89;nan;96580.78;5091329;28;20559;-60
2023/01/01 07:15:27;;;;;;;135.63;73.38;;;;;;;6.17;nan;96581.00;5090988;28;20292;-59
2023/01/01 07:17:54;;;;;;;131.18;65.10;;;;;;;6.35;nan;96565.97;5090709;28;20648;-59
2023/01/01 07:20:21;;;;;;;133.15;67.32;;;;;;;6.67;nan;96573.75;5091103;28;20204;-60
2023/01/01 07:22:47;;;;;;;135.75;68.35;;;;;;;7.65;nan;96580.03;5090660;28;20237;-60
2023/01/01 07:25:15;;;;;;;116.32;63.47;;;;;;;9.34;nan;96572.25;5091257;28;20262;-59
2023/01/01 07:27:43;;;;;;;123.40;63.35;;;;;;;11.07;nan;96564.94;5091094;28;20193;-58
2023/01/01 07:30:10;;;;;;;118.70;61.95;;;;;;;11.44;nan;96553.41;5090589;28;20839;-59
2023/01/01 07:32:37;;;;;;;111.03;59.92;;;;;;;11.16;nan;96554.63;5091063;28;20194;-58
2023/01/01 07:35:04;;;;;;;121.45;66.00;;;;;;;10.44;nan;96562.19;5090859;28;20229;-59
2023/01/01 07:37:31;;;;;;;127.97;67.60;;;;;;;10.21;nan;96568.31;5090874;28;20225;-58
2023/01/01 07:39:57;;;;;;;127.45;69.28;;;;;;;10.27;nan;96566.56;5090680;28;20209;-58
2023/01/01 07:42:24;;;;;;;145.88;71.00;;;;;;;10.25;nan;96575.91;5090489;28;20194;-58
2023/01/01 07:44:52;;;;;;;131.98;66.28;;;;;;;10.60;nan;96573.91;5091061;28;20194;-59
2023/01/01 07:47:21;;;;;;;126.47;67.97;;;;;;;10.98;nan;96570.13;5090806;28;20262;-58
2023/01/01 07:49:48;;;;;;;132.40;70.10;;;;;;;10.96;nan;96567.59;5090877;28;20258;-59
2023/01/01 07:52:15;;;;;;;118.93;60.60;;;;;;;11.22;nan;96572.38;5090558;28;20732;-59
2023/01/01 07:54:42;;;;;;;121.05;60.10;;;;;;;11.54;nan;96570.28;5090450;28;20626;-60
2023/01/01 07:57:08;;;;;;;113.85;60.75;;;;;;;11.66;nan;96568.41;5090324;28;20532;-59
2023/01/01 07:59:35;;;;;;;120.28;61.75;;;;;;;12.39;nan;96562.22;5090616;28;20197;-59
2023/01/01 08:02:03;;;;;;;119.40;59.95;;;;;;;13.23;nan;96566.66;5090416;28;20617;-59
2023/01/01 08:04:30;;;;;;;113.18;59.83;;;;;;;13.98;nan;96562.50;5092290;28;20201;-59
2023/01/01 08:06:57;;;;;;;115.80;60.40;;;;;;;14.07;nan;96563.13;5094509;28;20223;-59
2023/01/01 08:09:23;;;;;;;109.80;60.00;;;;;;;14.23;nan;96569.56;5094564;28;20554;-59
2023/01/01 08:11:52;;;;;;;110.00;58.60;;;;;;;14.43;nan;96565.72;5094567;28;20202;-59
2023/01/01 08:14:18;;;;;;;107.78;60.80;;;;;;;14.24;nan;96581.47;5094963;28;20228;-60
2023/01/01 08:16:45;;;;;;;111.22;59.67;;;;;;;13.90;nan;96578.00;5094159;28;20262;-60
2023/01/01 08:19:13;;;;;;;112.07;61.33;;;;;;;13.54;nan;96572.84;5094768;28;20221;-59
2023/01/01 08:21:40;;;;;;;109.38;63.95;;;;;;;13.17;nan;96577.00;5093962;28;20229;-60
2023/01/01 08:24:07;;;;;;;120.57;64.15;;;;;;;12.95;nan;96582.47;5094463;28;20225;-60
2023/01/01 08:26:36;;;;;;;123.03;69.25;;;;;;;12.60;nan;96579.72;5094116;28;20728;-59
2023/01/01 08:29:04;;;;;;;113.25;66.38;;;;;;;12.27;nan;96587.06;5094255;28;20201;-59
2023/01/01 08:31:31;;;;;;;115.72;67.32;;;;;;;11.97;nan;96591.78;5094401;28;20202;-58
2023/01/01 08:33:58;;;;;;;120.82;66.45;;;;;;;11.62;nan;96582.06;5094582;28;20218;-59
2023/01/01 08:36:26;;;;;;;112.15;62.67;;;;;;;11.31;nan;96585.00;5093866;28;20193;-59
2023/01/01 08:38:53;;;;;;;125.35;68.35;;;;;;;11.12;nan;96579.28;5094362;28;20278;-60
2023/01/01 08:41:20;;;;;;;111.53;63.88;;;;;;;11.01;nan;96575.16;5094013;28;20197;-58
2023/01/01 08:43:46;;;;;;;114.70;64.97;;;;;;;10.90;nan;96578.66;5093998;28;20675;-59
2023/01/01 08:46:13;;;;;;;107.20;61.80;;;;;;;11.01;nan;96576.00;5094141;28;20258;-59
2023/01/01 08:48:40;;;;;;;101.55;59.92;;;;;;;11.19;nan;96582.59;5093713;28;20327;-61
2023/01/01 08:51:06;;;;;;;114.78;60.53;;;;;;;11.46;nan;96574.63;5093694;28;20198;-60
2023/01/01 08:53:34;;;;;;;108.22;61.55;;;;;;;11.76;nan;96582.72;5093769;28;20201;-60
2023/01/01 08:56:03;;;;;;;105.63;56.20;;;;;;;11.74;nan;96584.44;5093752;28;20266;-60
2023/01/01 08:58:30;;;;;;;104.90;57.85;;;;;;;11.57;nan;96580.41;5093583;28;20312;-59
2023/01/01 09:00:58;;;;;;;100.07;55.00;;;;;;;11.64;nan;96577.78;5093909;28;20296;-60
2023/01/01 09:03:25;;;;;;;104.30;58.60;;;;;;;11.69;nan;96576.00;5093442;28;20584;-60
2023/01/01 09:05:52;;;;;;;117.93;59.17;;;;;;;11.34;nan;96554.41;5093677;28;20290;-60
2023/01/01 09:08:19;;;;;;;95.88;55.22;;;;;;;11.27;nan;96578.25;5093369;28;20652;-59
2023/01/01 09:10:48;;;;;;;95.57;53.65;;;;;;;11.45;nan;96567.84;5093592;28;20202;-60
2023/01/01 09:13:17;;;;;;;90.82;51.22;;;;;;;11.58;nan;96569.38;5093702;28;20619;-59
2023/01/01 09:15:44;;;;;;;91.68;49.33;;;;;;;11.85;nan;96567.34;5092178;28;20209;-59
2023/01/01 09:18:11;;;;;;;88.15;49.95;;;;;;;11.82;nan;96557.19;5093495;28;20221;-59
2023/01/01 09:20:38;;;;;;;97.53;49.53;;;;;;;11.90;nan;96546.00;5093207;28;20499;-58
2023/01/01 09:23:06;;;;;;;82.88;45.45;;;;;;;11.99;nan;96545.03;5092951;28;20670;-60
2023/01/01 09:25:33;;;;;;;87.18;49.25;;;;;;;11.98;nan;96545.91;5093285;28;20205;-60
2023/01/01 09:28:03;;;;;;;86.72;49.85;;;;;;;12.01;nan;96537.38;5093420;28;20563;-60
2023/01/01 09:30:30;;;;;;;90.07;50.60;;;;;;;12.12;nan;96533.78;5092948;28;20201;-59
2023/01/01 09:32:56;;;;;;;87.80;48.88;;;;;;;12.18;nan;96531.13;5092908;28;20208;-60
2023/01/01 09:35:23;;;;;;;79.22;45.58;;;;;;;12.26;nan;96539.50;5093208;28;20205;-59
2023/01/01 09:37:50;;;;;;;76.57;47.15;;;;;;;12.41;nan;96522.25;5092924;28;20687;-60
2023/01/01 09:40:26;;;;;;;82.45;49.28;;;;;;;12.39;nan;96519.72;5093099;28;20202;-60
2023/01/01 09:43:06;;;;;;;79.95;46.40;;;;;;;12.57;nan;96529.63;5093043;28;20257;-59
2023/01/01 09:45:40;;;;;;;82.97;45.10;;;;;;;12.74;nan;96525.91;5092741;28;20228;-59
2023/01/01 09:48:12;;;;;;;80.72;44.60;;;;;;;12.79;nan;96524.97;5092920;28;20627;-59
2023/01/01 09:50:41;;;;;;;76.35;41.97;;;;;;;12.66;nan;96523.50;5092851;28;20205;-59
2023/01/01 09:53:14;;;;;;;71.07;42.25;;;;;;;12.42;nan;96519.66;5092519;28;20555;-59
2023/01/01 09:55:46;;;;;;;64.57;39.90;;;;;;;12.50;nan;96517.00;5092714;28;20284;-60
2023/01/01 09:58:15;;;;;;;64.22;38.33;;;;;;;12.51;nan;96508.47;5092552;28;20217;-60
2023/01/01 10:00:45;;;;;;;64.57;38.75;;;;;;;12.44;nan;96517.94;5092456;28;20197;-59
2023/01/01 10:03:28;;;;;;;61.58;38.00;;;;;;;12.52;nan;96518.66;5092578;28;20263;-59
2023/01/01 10:06:00;;;;;;;57.25;35.38;;;;;;;12.76;nan;96507.16;5092588;28;20205;-61
2023/01/01 10:08:39;;;;;;;60.75;36.13;;;;;;;12.73;nan;96499.56;5092629;28;20226;-59
2023/01/01 10:11:18;;;;;;;58.58;36.88;;;;;;;12.78;nan;96505.41;5092238;28;20612;-60
2023/01/01 10:13:47;;;;;;;61.15;36.85;;;;;;;12.71;nan;96511.50;5091974;28;20698;-60
2023/01/01 10:16:24;;;;;;;58.75;37.63;;;;;;;12.87;nan;96512.03;5092525;28;20201;-59
2023/01/01 10:18:55;;;;;;;62.42;37.95;;;;;;;12.77;nan;96506.28;5091997;28;20224;-59
2023/01/01 10:21:25;;;;;;;64.40;39.35;;;;;;;12.79;nan;96498.59;5092090;28;20240;-60
2023/01/01 10:23:56;;;;;;;59.78;37.60;;;;;;;12.67;nan;96493.72;5091944;28;20205;-59
2023/01/01 10:26:26;;;;;;;66.85;38.97;;;;;;;12.69;nan;96487.72;5092234;28;20220;-60
2023/01/01 10:29:01;;;;;;;67.28;39.58;;;;;;;12.66;nan;96497.97;5091957;28;20201;-59
2023/01/01 10:31:32;;;;;;;60.05;37.92;;;;;;;12.37;nan;96490.88;5092172;28;20247;-59
2023/01/01 10:34:01;;;;;;;64.38;39.67;;;;;;;12.30;nan;96488.47;5091678;28;20686;-59
2023/01/01 10:36:28;;;;;;;67.25;41.05;;;;;;;12.47;nan;96483.91;5092527;28;20201;-59
2023/01/01 10:38:55;;;;;;;62.30;37.25;;;;;;;12.71;nan;96485.97;5091870;28;20226;-60
2023/01/01 10:41:21;;;;;;;59.30;35.40;;;;;;;12.30;nan;96470.63;5091359;28;20675;-59
2023/01/01 10:43:49;;;;;;;62.00;36.28;;;;;;;12.10;nan;96466.72;5091619;28;20250;-59
2023/01/01 10:46:22;;;;;;;62.53;38.17;;;;;;;12.24;nan;96458.81;5091421;28;20725;-59
2023/01/01 10:49:09;;;;;;;67.88;38.45;;;;;;;12.01;nan;96463.47;5091967;28;20259;-59
2023/01/01 10:51:37;;;;;;;73.60;41.53;;;;;;;11.86;nan;96462.88;5091588;28;20198;-59
2023/01/01 10:54:04;;;;;;;75.95;43.45;;;;;;;12.13;nan;96451.34;5091613;28;20198;-59
2023/01/01 10:56:40;;;;;;;78.93;45.40;;;;;;;12.21;nan;96448.69;5091606;28;20659;-60
2023/01/01 10:59:38;;;;;;;80.43;46.03;;;;;;;11.97;nan;96455.03;5091408;28;20317;-59
2023/01/01 11:02:16;;;;;;;88.75;49.42;;;;;;;11.55;nan;96447.19;5091338;28;20198;-60
2023/01/01 11:04:43;;;;;;;89.30;50.63;;;;;;;11.25;nan;96440.84;5091003;28;20606;-60
2023/01/01 11:07:18;;;;;;;96.47;50.65;;;;;;;11.21;nan;96438.38;5091580;28;20263;-60
2023/01/01 11:09:48;;;;;;;87.60;48.25;;;;;;;11.38;nan;96433.91;5091108;28;20627;-59
2023/01/01 11:12:20;;;;;;;85.60;47.38;;;;;;;11.40;nan;96432.13;5091574;28;20193;-60
2023/01/01 11:14:52;;;;;;;90.95;49.70;;;;;;;11.63;nan;96430.97;5090957;28;20713;-60
2023/01/01 11:17:23;;;;;;;99.53;52.10;;;;;;;11.52;nan;96426.03;5091534;28;20206;-60
2023/01/01 11:19:51;;;;;;;106.30;55.08;;;;;;;11.45;nan;96420.19;5090860;28;20232;-60
2023/01/01 11:22:37;;;;;;;99.05;53.92;;;;;;;11.39;nan;96421.97;5090952;28;20237;-60
2023/01/01 11:25:16;;;;;;;107.22;56.42;;;;;;;11.41;nan;96418.53;5090906;28;20208;-60
2023/01/01 11:27:43;;;;;;;103.55;56.72;;;;;;;11.69;nan;96416.41;5091337;28;20204;-60
2023/01/01 11:30:25;;;;;;;103.07;58.95;;;;;;;11.77;nan;96412.06;5090650;28;20201;-60
2023/01/01 11:32:56;;;;;;;105.70;60.45;;;;;;;11.89;nan;96403.38;5091010;28;20615;-59
2023/01/01 11:35:25;;;;;;;109.32;59.85;;;;;;;11.97;nan;96404.09;5090833;28;20637;-61
2023/01/01 11:37:54;;;;;;;110.15;58.35;;;;;;;11.72;nan;96398.53;5091031;28;20202;-59
2023/01/01 11:40:24;;;;;;;111.75;58.83;;;;;;;11.64;nan;96399.50;5089680;28;20256;-60
2023/01/01 11:42:54;;;;;;;101.72;55.08;;;;;;;11.48;nan;96394.69;5090966;28;20194;-59
2023/01/01 11:45:23;;;;;;;92.65;54.40;;;;;;;11.32;nan;96389.88;5090736;28;20194;-60
2023/01/01 11:47:56;;;;;;;102.68;54.67;;;;;;;11.42;nan;96384.59;5090863;28;20255;-60